sensor_id;sensor_type;location;lat;lon;timestamp;P1;durP1;ratioP1;P2;durP2;ratioP2
37303;SDS011;23188;51.188;16.374;2022-07-04T00:02:40;9.73;;;8.73;;
37303;SDS011;23188;51.188;16.374;2022-07-04T00:06:43;10.65;;;9.43;;
37303;SDS011;23188;51.188;16.374;2022-07-04T00:10:44;9.58;;;8.63;;
37303;SDS011;23188;51.188;16.374;2022-07-04T00:14:45;7.37;;;6.62;;
37303;SDS011;23188;51.188;16.374;2022-07-04T00:18:47;17.00;;;8.98;;
37303;SDS011;23188;51.188;16.374;2022-07-04T00:22:48;9.23;;;7.83;;
37303;SDS011;23188;51.188;16.374;2022-07-04T00:26:50;12.68;;;10.55;;
37303;SDS011;23188;51.188;16.374;2022-07-04T00:30:51;11.43;;;9.40;;
37303;SDS011;23188;51.188;16.374;2022-07-04T00:34:52;9.50;;;8.35;;
37303;SDS011;23188;51.188;16.374;2022-07-04T00:38:53;9.78;;;8.48;;
37303;SDS011;23188;51.188;16.374;2022-07-04T00:42:59;12.75;;;8.65;;
37303;SDS011;23188;51.188;16.374;2022-07-04T00:47:06;9.73;;;7.12;;
37303;SDS011;23188;51.188;16.374;2022-07-04T00:51:08;8.40;;;7.28;;
37303;SDS011;23188;51.188;16.374;2022-07-04T00:55:09;10.18;;;8.53;;
37303;SDS011;23188;51.188;16.374;2022-07-04T00:59:11;7.33;;;6.58;;
37303;SDS011;23188;51.188;16.374;2022-07-04T01:03:13;7.12;;;6.20;;
37303;SDS011;23188;51.188;16.374;2022-07-04T01:07:15;11.28;;;8.45;;
37303;SDS011;23188;51.188;16.374;2022-07-04T01:11:17;7.75;;;6.92;;
37303;SDS011;23188;51.188;16.374;2022-07-04T01:15:18;10.23;;;6.33;;
37303;SDS011;23188;51.188;16.374;2022-07-04T01:19:19;8.15;;;6.08;;
37303;SDS011;23188;51.188;16.374;2022-07-04T01:23:21;8.35;;;6.80;;
37303;SDS011;23188;51.188;16.374;2022-07-04T01:27:22;6.60;;;6.00;;
37303;SDS011;23188;51.188;16.374;2022-07-04T01:31:23;5.45;;;4.95;;
37303;SDS011;23188;51.188;16.374;2022-07-04T01:35:25;5.72;;;5.08;;
37303;SDS011;23188;51.188;16.374;2022-07-04T01:39:27;10.88;;;4.97;;
37303;SDS011;23188;51.188;16.374;2022-07-04T01:43:29;6.17;;;5.58;;
37303;SDS011;23188;51.188;16.374;2022-07-04T01:47:30;6.87;;;5.78;;
37303;SDS011;23188;51.188;16.374;2022-07-04T01:51:32;7.87;;;6.78;;
37303;SDS011;23188;51.188;16.374;2022-07-04T01:55:33;7.87;;;4.92;;
37303;SDS011;23188;51.188;16.374;2022-07-04T01:59:35;5.55;;;4.87;;
37303;SDS011;23188;51.188;16.374;2022-07-04T02:03:55;12.45;;;7.25;;
37303;SDS011;23188;51.188;16.374;2022-07-04T02:07:59;8.05;;;5.97;;
37303;SDS011;23188;51.188;16.374;2022-07-04T02:12:00;11.70;;;5.92;;
37303;SDS011;23188;51.188;16.374;2022-07-04T02:16:20;9.68;;;5.78;;
37303;SDS011;23188;51.188;16.374;2022-07-04T02:20:23;7.33;;;6.28;;
37303;SDS011;23188;51.188;16.374;2022-07-04T02:24:24;8.65;;;6.95;;
37303;SDS011;23188;51.188;16.374;2022-07-04T02:28:26;7.03;;;6.33;;
37303;SDS011;23188;51.188;16.374;2022-07-04T02:32:27;10.95;;;5.67;;
37303;SDS011;23188;51.188;16.374;2022-07-04T02:36:28;8.43;;;4.40;;
37303;SDS011;23188;51.188;16.374;2022-07-04T02:40:30;13.62;;;7.40;;
37303;SDS011;23188;51.188;16.374;2022-07-04T02:44:31;8.13;;;6.72;;
37303;SDS011;23188;51.188;16.374;2022-07-04T02:48:33;9.78;;;6.50;;
37303;SDS011;23188;51.188;16.374;2022-07-04T02:52:34;12.73;;;6.40;;
37303;SDS011;23188;51.188;16.374;2022-07-04T02:56:35;11.95;;;7.20;;
37303;SDS011;23188;51.188;16.374;2022-07-04T03:00:37;11.60;;;6.75;;
37303;SDS011;23188;51.188;16.374;2022-07-04T03:04:38;9.03;;;6.90;;
37303;SDS011;23188;51.188;16.374;2022-07-04T03:08:43;9.63;;;6.47;;
37303;SDS011;23188;51.188;16.374;2022-07-04T03:12:44;14.07;;;6.42;;
37303;SDS011;23188;51.188;16.374;2022-07-04T03:16:46;9.68;;;5.83;;
37303;SDS011;23188;51.188;16.374;2022-07-04T03:20:47;10.13;;;6.37;;
37303;SDS011;23188;51.188;16.374;2022-07-04T03:24:49;13.13;;;6.33;;
37303;SDS011;23188;51.188;16.374;2022-07-04T03:28:50;18.42;;;6.58;;
37303;SDS011;23188;51.188;16.374;2022-07-04T03:32:52;9.53;;;6.50;;
37303;SDS011;23188;51.188;16.374;2022-07-04T03:36:53;13.48;;;6.33;;
37303;SDS011;23188;51.188;16.374;2022-07-04T03:40:55;12.53;;;6.37;;
37303;SDS011;23188;51.188;16.374;2022-07-04T03:44:57;10.38;;;6.17;;
37303;SDS011;23188;51.188;16.374;2022-07-04T03:48:58;18.67;;;6.42;;
37303;SDS011;23188;51.188;16.374;2022-07-04T03:52:59;15.28;;;6.03;;
37303;SDS011;23188;51.188;16.374;2022-07-04T03:57:00;12.63;;;6.28;;
37303;SDS011;23188;51.188;16.374;2022-07-04T04:01:06;15.30;;;6.85;;
37303;SDS011;23188;51.188;16.374;2022-07-04T04:05:06;12.03;;;5.42;;
37303;SDS011;23188;51.188;16.374;2022-07-04T04:09:26;14.40;;;6.08;;
37303;SDS011;23188;51.188;16.374;2022-07-04T04:13:28;14.65;;;6.08;;
37303;SDS011;23188;51.188;16.374;2022-07-04T04:17:29;30.97;;;8.63;;
37303;SDS011;23188;51.188;16.374;2022-07-04T04:21:30;8.33;;;5.95;;
37303;SDS011;23188;51.188;16.374;2022-07-04T04:25:32;8.10;;;4.37;;
37303;SDS011;23188;51.188;16.374;2022-07-04T04:29:33;10.93;;;6.40;;
37303;SDS011;23188;51.188;16.374;2022-07-04T04:33:35;10.35;;;5.25;;
37303;SDS011;23188;51.188;16.374;2022-07-04T04:37:36;47.23;;;10.75;;
37303;SDS011;23188;51.188;16.374;2022-07-04T04:41:37;20.82;;;5.08;;
37303;SDS011;23188;51.188;16.374;2022-07-04T04:45:39;12.68;;;3.62;;
37303;SDS011;23188;51.188;16.374;2022-07-04T04:49:40;6.67;;;3.67;;
37303;SDS011;23188;51.188;16.374;2022-07-04T04:53:41;4.28;;;3.58;;
37303;SDS011;23188;51.188;16.374;2022-07-04T04:57:43;11.10;;;4.85;;
37303;SDS011;23188;51.188;16.374;2022-07-04T05:01:44;26.25;;;4.10;;
37303;SDS011;23188;51.188;16.374;2022-07-04T05:05:45;8.13;;;4.15;;
37303;SDS011;23188;51.188;16.374;2022-07-04T05:09:46;4.95;;;3.58;;
37303;SDS011;23188;51.188;16.374;2022-07-04T05:13:48;22.20;;;3.47;;
37303;SDS011;23188;51.188;16.374;2022-07-04T05:17:49;9.85;;;4.67;;
37303;SDS011;23188;51.188;16.374;2022-07-04T05:21:51;13.78;;;5.42;;
37303;SDS011;23188;51.188;16.374;2022-07-04T05:25:52;18.45;;;5.10;;
37303;SDS011;23188;51.188;16.374;2022-07-04T05:29:53;7.08;;;3.35;;
37303;SDS011;23188;51.188;16.374;2022-07-04T05:33:54;5.28;;;3.00;;
37303;SDS011;23188;51.188;16.374;2022-07-04T05:37:56;7.92;;;3.30;;
37303;SDS011;23188;51.188;16.374;2022-07-04T05:41:58;3.90;;;2.70;;
37303;SDS011;23188;51.188;16.374;2022-07-04T05:45:59;5.65;;;3.42;;
37303;SDS011;23188;51.188;16.374;2022-07-04T05:50:01;5.30;;;3.77;;
37303;SDS011;23188;51.188;16.374;2022-07-04T05:54:02;6.50;;;3.92;;
37303;SDS011;23188;51.188;16.374;2022-07-04T05:58:03;7.75;;;4.37;;
37303;SDS011;23188;51.188;16.374;2022-07-04T06:02:04;5.47;;;3.52;;
37303;SDS011;23188;51.188;16.374;2022-07-04T06:06:06;4.92;;;3.80;;
37303;SDS011;23188;51.188;16.374;2022-07-04T06:10:07;7.87;;;4.40;;
37303;SDS011;23188;51.188;16.374;2022-07-04T06:14:10;4.65;;;3.50;;
37303;SDS011;23188;51.188;16.374;2022-07-04T06:18:11;7.22;;;2.95;;
37303;SDS011;23188;51.188;16.374;2022-07-04T06:22:12;7.78;;;2.80;;
37303;SDS011;23188;51.188;16.374;2022-07-04T06:26:13;6.22;;;3.02;;
37303;SDS011;23188;51.188;16.374;2022-07-04T06:30:15;4.50;;;3.00;;
37303;SDS011;23188;51.188;16.374;2022-07-04T06:34:17;6.80;;;4.22;;
37303;SDS011;23188;51.188;16.374;2022-07-04T06:38:37;3.58;;;3.22;;
37303;SDS011;23188;51.188;16.374;2022-07-04T06:42:38;22.55;;;2.83;;
37303;SDS011;23188;51.188;16.374;2022-07-04T06:46:39;2.98;;;2.67;;
37303;SDS011;23188;51.188;16.374;2022-07-04T06:50:41;5.03;;;2.77;;
37303;SDS011;23188;51.188;16.374;2022-07-04T06:54:43;8.13;;;3.00;;
37303;SDS011;23188;51.188;16.374;2022-07-04T06:58:44;6.92;;;3.65;;
37303;SDS011;23188;51.188;16.374;2022-07-04T07:02:46;4.15;;;2.47;;
37303;SDS011;23188;51.188;16.374;2022-07-04T07:06:47;5.15;;;3.10;;
37303;SDS011;23188;51.188;16.374;2022-07-04T07:10:48;16.02;;;5.55;;
37303;SDS011;23188;51.188;16.374;2022-07-04T07:14:50;4.75;;;3.75;;
37303;SDS011;23188;51.188;16.374;2022-07-04T07:18:51;5.22;;;2.95;;
37303;SDS011;23188;51.188;16.374;2022-07-04T07:22:52;4.05;;;3.42;;
37303;SDS011;23188;51.188;16.374;2022-07-04T07:26:54;3.85;;;3.55;;
37303;SDS011;23188;51.188;16.374;2022-07-04T07:30:55;4.20;;;3.42;;
37303;SDS011;23188;51.188;16.374;2022-07-04T07:34:57;5.03;;;3.22;;
37303;SDS011;23188;51.188;16.374;2022-07-04T07:38:58;6.70;;;5.15;;
37303;SDS011;23188;51.188;16.374;2022-07-04T07:43:01;6.85;;;4.10;;
37303;SDS011;23188;51.188;16.374;2022-07-04T07:47:02;5.90;;;4.42;;
37303;SDS011;23188;51.188;16.374;2022-07-04T07:51:04;6.35;;;3.55;;
37303;SDS011;23188;51.188;16.374;2022-07-04T07:55:06;7.00;;;4.20;;
37303;SDS011;23188;51.188;16.374;2022-07-04T07:59:08;5.03;;;4.33;;
37303;SDS011;23188;51.188;16.374;2022-07-04T08:03:09;4.30;;;3.90;;
37303;SDS011;23188;51.188;16.374;2022-07-04T08:07:29;6.47;;;4.45;;
37303;SDS011;23188;51.188;16.374;2022-07-04T08:11:30;15.80;;;6.20;;
37303;SDS011;23188;51.188;16.374;2022-07-04T08:15:32;5.03;;;3.70;;
37303;SDS011;23188;51.188;16.374;2022-07-04T08:19:33;5.70;;;4.20;;
37303;SDS011;23188;51.188;16.374;2022-07-04T08:23:35;6.42;;;4.33;;
37303;SDS011;23188;51.188;16.374;2022-07-04T08:27:36;6.72;;;3.80;;
37303;SDS011;23188;51.188;16.374;2022-07-04T08:31:38;4.85;;;4.12;;
37303;SDS011;23188;51.188;16.374;2022-07-04T08:35:39;5.80;;;4.58;;
37303;SDS011;23188;51.188;16.374;2022-07-04T08:39:40;3.92;;;3.62;;
37303;SDS011;23188;51.188;16.374;2022-07-04T08:43:41;4.12;;;3.70;;
37303;SDS011;23188;51.188;16.374;2022-07-04T08:47:43;7.40;;;4.00;;
37303;SDS011;23188;51.188;16.374;2022-07-04T08:51:51;8.70;;;4.85;;
37303;SDS011;23188;51.188;16.374;2022-07-04T08:56:02;4.28;;;3.67;;
37303;SDS011;23188;51.188;16.374;2022-07-04T09:00:22;4.10;;;3.80;;
37303;SDS011;23188;51.188;16.374;2022-07-04T09:04:24;4.60;;;3.83;;
37303;SDS011;23188;51.188;16.374;2022-07-04T09:08:26;4.67;;;4.20;;
37303;SDS011;23188;51.188;16.374;2022-07-04T09:12:27;4.67;;;4.20;;
37303;SDS011;23188;51.188;16.374;2022-07-04T09:16:29;6.50;;;4.95;;
37303;SDS011;23188;51.188;16.374;2022-07-04T09:20:31;5.37;;;4.25;;
37303;SDS011;23188;51.188;16.374;2022-07-04T09:24:49;3.70;;;3.40;;
37303;SDS011;23188;51.188;16.374;2022-07-04T09:28:55;4.70;;;4.30;;
37303;SDS011;23188;51.188;16.374;2022-07-04T09:32:58;3.52;;;3.22;;
37303;SDS011;23188;51.188;16.374;2022-07-04T09:41:04;4.50;;;4.05;;
37303;SDS011;23188;51.188;16.374;2022-07-04T09:45:24;5.92;;;3.55;;
37303;SDS011;23188;51.188;16.374;2022-07-04T09:49:26;4.87;;;4.00;;
37303;SDS011;23188;51.188;16.374;2022-07-04T09:53:27;8.88;;;4.50;;
37303;SDS011;23188;51.188;16.374;2022-07-04T09:57:29;5.97;;;4.00;;
37303;SDS011;23188;51.188;16.374;2022-07-04T10:01:32;5.15;;;4.05;;
37303;SDS011;23188;51.188;16.374;2022-07-04T10:05:33;3.45;;;3.10;;
37303;SDS011;23188;51.188;16.374;2022-07-04T10:09:35;5.65;;;3.58;;
37303;SDS011;23188;51.188;16.374;2022-07-04T10:13:37;6.20;;;3.75;;
37303;SDS011;23188;51.188;16.374;2022-07-04T10:17:39;3.50;;;3.27;;
37303;SDS011;23188;51.188;16.374;2022-07-04T10:21:41;20.68;;;5.92;;
37303;SDS011;23188;51.188;16.374;2022-07-04T10:25:42;4.65;;;3.80;;
37303;SDS011;23188;51.188;16.374;2022-07-04T10:29:54;4.20;;;3.27;;
37303;SDS011;23188;51.188;16.374;2022-07-04T10:33:57;3.90;;;3.60;;
37303;SDS011;23188;51.188;16.374;2022-07-04T10:38:05;4.80;;;3.33;;
37303;SDS011;23188;51.188;16.374;2022-07-04T10:42:05;3.98;;;3.62;;
37303;SDS011;23188;51.188;16.374;2022-07-04T10:50:27;4.83;;;3.62;;
37303;SDS011;23188;51.188;16.374;2022-07-04T10:54:30;3.22;;;2.92;;
37303;SDS011;23188;51.188;16.374;2022-07-04T10:58:38;3.22;;;2.15;;
37303;SDS011;23188;51.188;16.374;2022-07-04T11:02:40;3.27;;;2.70;;
37303;SDS011;23188;51.188;16.374;2022-07-04T11:10:53;2.45;;;2.25;;
37303;SDS011;23188;51.188;16.374;2022-07-04T11:14:56;2.52;;;2.37;;
37303;SDS011;23188;51.188;16.374;2022-07-04T11:18:57;2.85;;;2.65;;
37303;SDS011;23188;51.188;16.374;2022-07-04T11:23:04;1.80;;;1.70;;
37303;SDS011;23188;51.188;16.374;2022-07-04T11:27:07;3.15;;;2.85;;
37303;SDS011;23188;51.188;16.374;2022-07-04T11:31:10;2.52;;;1.72;;
37303;SDS011;23188;51.188;16.374;2022-07-04T11:35:11;4.08;;;1.85;;
37303;SDS011;23188;51.188;16.374;2022-07-04T11:39:18;5.97;;;2.25;;
37303;SDS011;23188;51.188;16.374;2022-07-04T11:43:21;1.82;;;1.62;;
37303;SDS011;23188;51.188;16.374;2022-07-04T11:47:41;4.85;;;1.82;;
37303;SDS011;23188;51.188;16.374;2022-07-04T11:51:46;7.20;;;2.87;;
37303;SDS011;23188;51.188;16.374;2022-07-04T11:55:54;1.65;;;1.50;;
37303;SDS011;23188;51.188;16.374;2022-07-04T12:04:13;6.95;;;3.25;;
37303;SDS011;23188;51.188;16.374;2022-07-04T12:08:19;3.33;;;2.12;;
37303;SDS011;23188;51.188;16.374;2022-07-04T12:12:21;2.45;;;2.25;;
37303;SDS011;23188;51.188;16.374;2022-07-04T12:16:23;10.80;;;4.40;;
37303;SDS011;23188;51.188;16.374;2022-07-04T12:20:24;3.30;;;2.27;;
37303;SDS011;23188;51.188;16.374;2022-07-04T12:24:27;4.47;;;2.37;;
37303;SDS011;23188;51.188;16.374;2022-07-04T12:28:34;3.90;;;2.20;;
37303;SDS011;23188;51.188;16.374;2022-07-04T12:32:43;3.08;;;2.10;;
37303;SDS011;23188;51.188;16.374;2022-07-04T12:36:48;2.95;;;2.67;;
37303;SDS011;23188;51.188;16.374;2022-07-04T12:45:05;2.67;;;1.45;;
37303;SDS011;23188;51.188;16.374;2022-07-04T12:49:08;5.58;;;2.00;;
37303;SDS011;23188;51.188;16.374;2022-07-04T12:53:14;2.50;;;2.30;;
37303;SDS011;23188;51.188;16.374;2022-07-04T12:57:16;2.12;;;1.90;;
37303;SDS011;23188;51.188;16.374;2022-07-04T13:01:19;2.80;;;2.15;;
37303;SDS011;23188;51.188;16.374;2022-07-04T13:05:20;2.55;;;1.70;;
37303;SDS011;23188;51.188;16.374;2022-07-04T13:09:21;18.85;;;3.87;;
37303;SDS011;23188;51.188;16.374;2022-07-04T13:13:23;3.15;;;2.10;;
37303;SDS011;23188;51.188;16.374;2022-07-04T13:17:24;3.58;;;1.82;;
37303;SDS011;23188;51.188;16.374;2022-07-04T13:21:26;3.42;;;1.75;;
37303;SDS011;23188;51.188;16.374;2022-07-04T13:25:28;1.60;;;1.50;;
37303;SDS011;23188;51.188;16.374;2022-07-04T13:29:29;2.00;;;1.90;;
37303;SDS011;23188;51.188;16.374;2022-07-04T13:33:30;3.05;;;2.22;;
37303;SDS011;23188;51.188;16.374;2022-07-04T13:37:32;1.42;;;1.32;;
37303;SDS011;23188;51.188;16.374;2022-07-04T13:41:33;2.85;;;2.00;;
37303;SDS011;23188;51.188;16.374;2022-07-04T13:45:35;1.62;;;1.22;;
37303;SDS011;23188;51.188;16.374;2022-07-04T13:49:37;1.37;;;1.27;;
37303;SDS011;23188;51.188;16.374;2022-07-04T13:53:38;1.87;;;1.10;;
37303;SDS011;23188;51.188;16.374;2022-07-04T13:57:39;1.50;;;1.20;;
37303;SDS011;23188;51.188;16.374;2022-07-04T14:01:41;1.85;;;1.75;;
37303;SDS011;23188;51.188;16.374;2022-07-04T14:05:42;3.67;;;1.25;;
37303;SDS011;23188;51.188;16.374;2022-07-04T14:09:44;3.80;;;1.95;;
37303;SDS011;23188;51.188;16.374;2022-07-04T14:13:45;4.05;;;1.60;;
37303;SDS011;23188;51.188;16.374;2022-07-04T14:17:46;2.25;;;1.65;;
37303;SDS011;23188;51.188;16.374;2022-07-04T14:21:47;4.30;;;2.35;;
37303;SDS011;23188;51.188;16.374;2022-07-04T14:25:49;2.62;;;1.60;;
37303;SDS011;23188;51.188;16.374;2022-07-04T14:29:50;4.15;;;1.57;;
37303;SDS011;23188;51.188;16.374;2022-07-04T14:33:52;8.48;;;2.37;;
37303;SDS011;23188;51.188;16.374;2022-07-04T14:37:54;2.87;;;2.15;;
37303;SDS011;23188;51.188;16.374;2022-07-04T14:41:56;26.90;;;5.05;;
37303;SDS011;23188;51.188;16.374;2022-07-04T14:45:58;9.73;;;1.70;;
37303;SDS011;23188;51.188;16.374;2022-07-04T14:50:02;3.50;;;2.08;;
37303;SDS011;23188;51.188;16.374;2022-07-04T14:54:04;2.22;;;1.47;;
37303;SDS011;23188;51.188;16.374;2022-07-04T14:58:06;1.47;;;1.37;;
37303;SDS011;23188;51.188;16.374;2022-07-04T15:02:07;3.00;;;2.02;;
37303;SDS011;23188;51.188;16.374;2022-07-04T15:06:08;14.90;;;3.20;;
37303;SDS011;23188;51.188;16.374;2022-07-04T15:10:10;28.05;;;5.65;;
37303;SDS011;23188;51.188;16.374;2022-07-04T15:14:13;2.08;;;1.90;;
37303;SDS011;23188;51.188;16.374;2022-07-04T15:18:14;1.67;;;1.57;;
37303;SDS011;23188;51.188;16.374;2022-07-04T15:22:16;1.50;;;1.40;;
37303;SDS011;23188;51.188;16.374;2022-07-04T15:26:35;1.95;;;1.50;;
37303;SDS011;23188;51.188;16.374;2022-07-04T15:30:36;1.95;;;1.85;;
37303;SDS011;23188;51.188;16.374;2022-07-04T15:34:37;3.15;;;1.65;;
37303;SDS011;23188;51.188;16.374;2022-07-04T15:38:38;3.27;;;2.42;;
37303;SDS011;23188;51.188;16.374;2022-07-04T15:42:40;1.60;;;1.50;;
37303;SDS011;23188;51.188;16.374;2022-07-04T15:46:41;2.40;;;1.50;;
37303;SDS011;23188;51.188;16.374;2022-07-04T15:51:00;2.47;;;1.92;;
37303;SDS011;23188;51.188;16.374;2022-07-04T15:55:02;2.65;;;1.22;;
37303;SDS011;23188;51.188;16.374;2022-07-04T15:59:03;3.42;;;1.70;;
37303;SDS011;23188;51.188;16.374;2022-07-04T16:03:05;1.32;;;1.22;;
37303;SDS011;23188;51.188;16.374;2022-07-04T16:07:07;1.62;;;1.50;;
37303;SDS011;23188;51.188;16.374;2022-07-04T16:11:08;1.67;;;1.52;;
37303;SDS011;23188;51.188;16.374;2022-07-04T16:15:09;2.17;;;1.92;;
37303;SDS011;23188;51.188;16.374;2022-07-04T16:19:11;3.52;;;2.12;;
37303;SDS011;23188;51.188;16.374;2022-07-04T16:23:12;1.72;;;1.62;;
37303;SDS011;23188;51.188;16.374;2022-07-04T16:27:13;2.15;;;1.80;;
37303;SDS011;23188;51.188;16.374;2022-07-04T16:31:15;2.75;;;1.47;;
37303;SDS011;23188;51.188;16.374;2022-07-04T16:35:18;3.50;;;2.10;;
37303;SDS011;23188;51.188;16.374;2022-07-04T16:39:19;1.82;;;1.72;;
37303;SDS011;23188;51.188;16.374;2022-07-04T16:43:23;3.50;;;1.50;;
37303;SDS011;23188;51.188;16.374;2022-07-04T16:47:24;2.33;;;1.87;;
37303;SDS011;23188;51.188;16.374;2022-07-04T16:51:25;3.00;;;1.37;;
37303;SDS011;23188;51.188;16.374;2022-07-04T16:55:26;2.20;;;1.47;;
37303;SDS011;23188;51.188;16.374;2022-07-04T16:59:28;1.55;;;1.25;;
37303;SDS011;23188;51.188;16.374;2022-07-04T17:03:29;1.52;;;1.42;;
37303;SDS011;23188;51.188;16.374;2022-07-04T17:07:30;4.17;;;1.85;;
37303;SDS011;23188;51.188;16.374;2022-07-04T17:11:32;2.02;;;1.87;;
37303;SDS011;23188;51.188;16.374;2022-07-04T17:15:33;3.83;;;2.10;;
37303;SDS011;23188;51.188;16.374;2022-07-04T17:19:35;2.70;;;1.90;;
37303;SDS011;23188;51.188;16.374;2022-07-04T17:23:36;1.82;;;1.60;;
37303;SDS011;23188;51.188;16.374;2022-07-04T17:27:37;1.70;;;1.40;;
37303;SDS011;23188;51.188;16.374;2022-07-04T17:31:39;3.37;;;2.87;;
37303;SDS011;23188;51.188;16.374;2022-07-04T17:35:40;2.92;;;2.58;;
37303;SDS011;23188;51.188;16.374;2022-07-04T17:39:42;2.20;;;2.10;;
37303;SDS011;23188;51.188;16.374;2022-07-04T17:43:43;11.78;;;3.08;;
37303;SDS011;23188;51.188;16.374;2022-07-04T17:47:44;5.62;;;1.95;;
37303;SDS011;23188;51.188;16.374;2022-07-04T17:51:47;5.28;;;2.65;;
37303;SDS011;23188;51.188;16.374;2022-07-04T17:55:49;9.23;;;3.30;;
37303;SDS011;23188;51.188;16.374;2022-07-04T17:59:51;5.40;;;2.70;;
37303;SDS011;23188;51.188;16.374;2022-07-04T18:03:53;6.47;;;3.02;;
37303;SDS011;23188;51.188;16.374;2022-07-04T18:07:55;3.37;;;2.70;;
37303;SDS011;23188;51.188;16.374;2022-07-04T18:11:57;2.90;;;2.40;;
37303;SDS011;23188;51.188;16.374;2022-07-04T18:16:00;4.00;;;2.75;;
37303;SDS011;23188;51.188;16.374;2022-07-04T18:20:01;2.90;;;2.65;;
37303;SDS011;23188;51.188;16.374;2022-07-04T18:24:03;8.45;;;3.77;;
37303;SDS011;23188;51.188;16.374;2022-07-04T18:28:05;5.60;;;4.50;;
37303;SDS011;23188;51.188;16.374;2022-07-04T18:32:06;4.83;;;3.10;;
37303;SDS011;23188;51.188;16.374;2022-07-04T18:36:07;3.65;;;3.30;;
37303;SDS011;23188;51.188;16.374;2022-07-04T18:40:09;3.45;;;2.67;;
37303;SDS011;23188;51.188;16.374;2022-07-04T18:44:29;4.80;;;2.70;;
37303;SDS011;23188;51.188;16.374;2022-07-04T18:48:32;5.15;;;3.60;;
37303;SDS011;23188;51.188;16.374;2022-07-04T18:52:37;3.25;;;2.95;;
37303;SDS011;23188;51.188;16.374;2022-07-04T18:56:38;4.60;;;3.30;;
37303;SDS011;23188;51.188;16.374;2022-07-04T19:00:40;6.05;;;3.92;;
37303;SDS011;23188;51.188;16.374;2022-07-04T19:04:41;3.75;;;3.45;;
37303;SDS011;23188;51.188;16.374;2022-07-04T19:08:42;3.35;;;3.02;;
37303;SDS011;23188;51.188;16.374;2022-07-04T19:12:43;3.98;;;3.00;;
37303;SDS011;23188;51.188;16.374;2022-07-04T19:16:45;3.83;;;3.33;;
37303;SDS011;23188;51.188;16.374;2022-07-04T19:20:46;6.78;;;3.33;;
37303;SDS011;23188;51.188;16.374;2022-07-04T19:24:47;4.60;;;3.77;;
37303;SDS011;23188;51.188;16.374;2022-07-04T19:28:49;4.22;;;3.67;;
37303;SDS011;23188;51.188;16.374;2022-07-04T19:32:50;3.05;;;2.67;;
37303;SDS011;23188;51.188;16.374;2022-07-04T19:36:52;3.65;;;3.20;;
37303;SDS011;23188;51.188;16.374;2022-07-04T19:40:53;4.10;;;3.62;;
37303;SDS011;23188;51.188;16.374;2022-07-04T19:44:54;5.30;;;4.80;;
37303;SDS011;23188;51.188;16.374;2022-07-04T19:48:55;5.10;;;4.45;;
37303;SDS011;23188;51.188;16.374;2022-07-04T19:52:56;5.50;;;4.65;;
37303;SDS011;23188;51.188;16.374;2022-07-04T19:56:59;4.17;;;3.40;;
37303;SDS011;23188;51.188;16.374;2022-07-04T20:01:00;3.65;;;3.20;;
37303;SDS011;23188;51.188;16.374;2022-07-04T20:05:03;12.23;;;5.87;;
37303;SDS011;23188;51.188;16.374;2022-07-04T20:09:07;11.57;;;5.00;;
37303;SDS011;23188;51.188;16.374;2022-07-04T20:13:08;17.55;;;5.12;;
37303;SDS011;23188;51.188;16.374;2022-07-04T20:17:19;8.38;;;3.90;;
37303;SDS011;23188;51.188;16.374;2022-07-04T20:21:23;5.50;;;3.25;;
37303;SDS011;23188;51.188;16.374;2022-07-04T20:25:24;12.95;;;4.25;;
37303;SDS011;23188;51.188;16.374;2022-07-04T20:29:25;6.40;;;3.62;;
37303;SDS011;23188;51.188;16.374;2022-07-04T20:33:27;6.70;;;3.75;;
37303;SDS011;23188;51.188;16.374;2022-07-04T20:37:28;4.50;;;3.45;;
37303;SDS011;23188;51.188;16.374;2022-07-04T20:41:30;5.22;;;4.03;;
37303;SDS011;23188;51.188;16.374;2022-07-04T20:45:31;13.03;;;4.58;;
37303;SDS011;23188;51.188;16.374;2022-07-04T20:49:32;4.40;;;3.80;;
37303;SDS011;23188;51.188;16.374;2022-07-04T20:53:34;4.55;;;4.12;;
37303;SDS011;23188;51.188;16.374;2022-07-04T20:57:35;5.42;;;3.87;;
37303;SDS011;23188;51.188;16.374;2022-07-04T21:01:37;15.50;;;6.50;;
37303;SDS011;23188;51.188;16.374;2022-07-04T21:05:38;12.53;;;5.37;;
37303;SDS011;23188;51.188;16.374;2022-07-04T21:09:40;38.42;;;9.63;;
37303;SDS011;23188;51.188;16.374;2022-07-04T21:13:41;22.65;;;7.30;;
37303;SDS011;23188;51.188;16.374;2022-07-04T21:17:42;26.85;;;7.67;;
37303;SDS011;23188;51.188;16.374;2022-07-04T21:21:46;17.67;;;6.10;;
37303;SDS011;23188;51.188;16.374;2022-07-04T21:25:48;16.70;;;6.03;;
37303;SDS011;23188;51.188;16.374;2022-07-04T21:29:50;12.60;;;6.47;;
37303;SDS011;23188;51.188;16.374;2022-07-04T21:33:51;17.98;;;6.75;;
37303;SDS011;23188;51.188;16.374;2022-07-04T21:37:53;8.13;;;5.03;;
37303;SDS011;23188;51.188;16.374;2022-07-04T21:41:56;5.78;;;4.55;;
37303;SDS011;23188;51.188;16.374;2022-07-04T21:45:58;19.90;;;7.17;;
37303;SDS011;23188;51.188;16.374;2022-07-04T21:49:59;9.03;;;6.53;;
37303;SDS011;23188;51.188;16.374;2022-07-04T21:54:00;6.28;;;5.67;;
37303;SDS011;23188;51.188;16.374;2022-07-04T21:58:02;8.45;;;5.15;;
37303;SDS011;23188;51.188;16.374;2022-07-04T22:02:03;10.28;;;4.58;;
37303;SDS011;23188;51.188;16.374;2022-07-04T22:06:04;12.28;;;4.42;;
37303;SDS011;23188;51.188;16.374;2022-07-04T22:10:06;5.58;;;5.08;;
37303;SDS011;23188;51.188;16.374;2022-07-04T22:14:09;7.90;;;5.45;;
37303;SDS011;23188;51.188;16.374;2022-07-04T22:18:11;7.00;;;6.17;;
37303;SDS011;23188;51.188;16.374;2022-07-04T22:22:12;5.47;;;5.08;;
37303;SDS011;23188;51.188;16.374;2022-07-04T22:26:13;6.72;;;6.12;;
37303;SDS011;23188;51.188;16.374;2022-07-04T22:30:15;6.75;;;6.15;;
37303;SDS011;23188;51.188;16.374;2022-07-04T22:34:16;6.35;;;5.70;;
37303;SDS011;23188;51.188;16.374;2022-07-04T22:38:17;7.00;;;6.40;;
37303;SDS011;23188;51.188;16.374;2022-07-04T22:42:19;6.65;;;5.97;;
37303;SDS011;23188;51.188;16.374;2022-07-04T22:46:20;9.20;;;6.72;;
37303;SDS011;23188;51.188;16.374;2022-07-04T22:50:22;6.80;;;5.97;;
37303;SDS011;23188;51.188;16.374;2022-07-04T22:54:24;7.47;;;6.17;;
37303;SDS011;23188;51.188;16.374;2022-07-04T22:58:43;6.37;;;5.90;;
37303;SDS011;23188;51.188;16.374;2022-07-04T23:02:44;10.48;;;6.15;;
37303;SDS011;23188;51.188;16.374;2022-07-04T23:06:46;8.43;;;6.87;;
37303;SDS011;23188;51.188;16.374;2022-07-04T23:10:47;8.53;;;7.72;;
37303;SDS011;23188;51.188;16.374;2022-07-04T23:14:48;9.20;;;8.35;;
37303;SDS011;23188;51.188;16.374;2022-07-04T23:18:50;9.90;;;9.00;;
37303;SDS011;23188;51.188;16.374;2022-07-04T23:22:51;8.68;;;7.87;;
37303;SDS011;23188;51.188;16.374;2022-07-04T23:26:52;8.63;;;7.72;;
37303;SDS011;23188;51.188;16.374;2022-07-04T23:30:54;8.58;;;7.78;;
37303;SDS011;23188;51.188;16.374;2022-07-04T23:34:55;8.43;;;7.42;;
37303;SDS011;23188;51.188;16.374;2022-07-04T23:38:56;9.13;;;8.28;;
37303;SDS011;23188;51.188;16.374;2022-07-04T23:42:58;9.83;;;8.83;;
37303;SDS011;23188;51.188;16.374;2022-07-04T23:46:59;8.20;;;7.53;;
37303;SDS011;23188;51.188;16.374;2022-07-04T23:51:00;9.13;;;8.20;;
37303;SDS011;23188;51.188;16.374;2022-07-04T23:55:02;8.45;;;7.70;;
37303;SDS011;23188;51.188;16.374;2022-07-04T23:59:04;12.23;;;8.28;;
